Time,TemperatureF,DewpointF,PressureIn,WindDirection,WindDirectionDegrees,WindSpeedMPH,WindSpeedGustMPH,Humidity,HourlyPrecipIn,Conditions,Clouds,dailyrainin,SoftwareType,DateUTC
2013-01-16 00:00:00,14.7,11.5,30.11,SW,217,2.0,0.0,87,0.00,,OVC003,0.00,VWS V14.01,2013-01-16 05:00:00,
2013-01-16 00:01:00,14.6,11.4,30.11,SW,218,2.0,0.0,87,0.00,,OVC003,0.00,VWS V14.01,2013-01-16 05:01:00,
2013-01-16 00:06:00,14.5,11.3,30.10,SW,218,2.0,0.0,87,0.00,,OVC003,0.00,VWS V14.01,2013-01-16 05:06:00,
2013-01-16 00:08:00,14.5,11.3,30.10,SW,217,2.0,0.0,87,0.00,,OVC003,0.00,VWS V14.01,2013-01-16 05:08:00,
2013-01-16 00:11:00,14.5,11.3,30.10,SW,217,2.0,0.0,87,0.00,,OVC003,0.00,VWS V14.01,2013-01-16 05:11:00,
2013-01-16 00:16:00,14.5,11.3,30.10,SW,217,2.0,0.0,87,0.00,,OVC003,0.00,VWS V14.01,2013-01-16 05:16:00,
2013-01-16 00:21:00,14.5,11.3,30.10,SW,217,2.0,0.0,87,0.00,,OVC003,0.00,VWS V14.01,2013-01-16 05:21:00,
2013-01-16 00:26:00,14.6,11.4,30.10,SW,218,2.0,0.0,87,0.00,,OVC003,0.00,VWS V14.01,2013-01-16 05:26:00,
2013-01-16 00:31:00,14.5,11.3,30.10,SW,217,2.0,0.0,87,0.00,,OVC003,0.00,VWS V14.01,2013-01-16 05:31:00,
2013-01-16 00:36:00,14.5,11.3,30.09,SW,217,2.0,0.0,87,0.00,,OVC003,0.00,VWS V14.01,2013-01-16 05:36:00,
2013-01-16 00:41:00,14.4,11.2,30.09,SW,218,2.0,0.0,87,0.00,,OVC003,0.00,VWS V14.01,2013-01-16 05:41:00,
2013-01-16 00:46:00,14.4,11.5,30.09,SW,217,2.0,0.0,88,0.00,,OVC003,0.00,VWS V14.01,2013-01-16 05:46:00,
2013-01-16 00:51:00,14.5,11.6,30.08,SW,217,2.0,0.0,88,0.00,,OVC003,0.00,VWS V14.01,2013-01-16 05:51:00,
2013-01-16 00:56:00,14.5,11.6,30.08,SW,217,2.0,0.0,88,0.00,,OVC003,0.00,VWS V14.01,2013-01-16 05:56:00,
2013-01-16 01:01:00,14.5,11.6,30.08,SW,217,2.0,0.0,88,0.00,,OVC003,0.00,VWS V14.01,2013-01-16 06:01:00,
2013-01-16 01:06:00,14.4,11.5,30.07,SW,218,2.0,0.0,88,0.00,,OVC003,0.00,VWS V14.01,2013-01-16 06:06:00,
2013-01-16 01:11:00,14.4,11.5,30.07,SW,217,2.0,0.0,88,0.00,,OVC003,0.00,VWS V14.01,2013-01-16 06:11:00,
2013-01-16 01:16:00,14.4,11.5,30.07,SW,217,2.0,0.0,88,0.00,,OVC003,0.00,VWS V14.01,2013-01-16 06:16:00,
2013-01-16 01:21:00,14.4,11.5,30.07,SW,217,2.0,0.0,88,0.00,,OVC003,0.00,VWS V14.01,2013-01-16 06:21:00,
2013-01-16 01:26:00,14.4,11.5,30.07,SW,217,2.0,0.0,88,0.00,,OVC003,0.00,VWS V14.01,2013-01-16 06:26:00,
2013-01-16 01:31:00,14.4,11.5,30.07,SW,218,2.0,0.0,88,0.00,,OVC003,0.00,VWS V14.01,2013-01-16 06:31:00,
2013-01-16 01:36:00,14.3,11.4,30.06,SW,217,2.0,0.0,88,0.00,,OVC003,0.00,VWS V14.01,2013-01-16 06:36:00,
2013-01-16 01:42:00,14.1,11.2,30.06,SW,217,2.0,0.0,88,0.00,,OVC003,0.00,VWS V14.01,2013-01-16 06:42:00,
2013-01-16 01:47:00,13.9,11.0,30.06,SW,218,2.0,0.0,88,0.00,,OVC003,0.00,VWS V14.01,2013-01-16 06:47:00,
2013-01-16 01:52:00,13.7,10.8,30.05,SW,217,2.0,0.0,88,0.00,,OVC003,0.00,VWS V14.01,2013-01-16 06:52:00,
2013-01-16 01:57:00,13.6,10.5,30.05,SW,217,2.0,0.0,87,0.00,,OVC003,0.00,VWS V14.01,2013-01-16 06:57:00,
2013-01-16 02:02:00,13.4,10.5,30.05,SW,217,2.0,0.0,88,0.00,,OVC003,0.00,VWS V14.01,2013-01-16 07:02:00,
2013-01-16 02:07:00,13.4,10.5,30.04,SW,218,2.0,0.0,88,0.00,,OVC003,0.00,VWS V14.01,2013-01-16 07:07:00,
2013-01-16 02:12:00,13.3,10.4,30.04,SW,218,2.0,0.0,88,0.00,,OVC003,0.00,VWS V14.01,2013-01-16 07:12:00,
2013-01-16 02:17:00,13.3,10.4,30.04,SW,218,2.0,0.0,88,0.00,,OVC003,0.00,VWS V14.01,2013-01-16 07:17:00,
2013-01-16 02:22:00,13.5,10.6,30.03,SW,218,2.0,0.0,88,0.00,,OVC003,0.00,VWS V14.01,2013-01-16 07:22:00,
2013-01-16 02:27:00,13.6,10.7,30.03,SW,218,2.0,0.0,88,0.00,,OVC003,0.00,VWS V14.01,2013-01-16 07:27:00,
2013-01-16 02:32:00,13.7,10.8,30.03,SW,218,2.0,0.0,88,0.00,,OVC003,0.00,VWS V14.01,2013-01-16 07:32:00,
2013-01-16 02:37:00,13.6,10.7,30.03,SW,218,2.0,0.0,88,0.00,,OVC003,0.00,VWS V14.01,2013-01-16 07:37:00,
2013-01-16 02:42:00,13.6,10.7,30.03,SW,217,2.0,0.0,88,0.00,,OVC003,0.00,VWS V14.01,2013-01-16 07:42:00,
2013-01-16 02:47:00,13.7,10.8,30.03,SW,217,2.0,0.0,88,0.00,,OVC003,0.00,VWS V14.01,2013-01-16 07:47:00,
2013-01-16 02:52:00,13.8,10.9,30.03,SW,217,2.0,0.0,88,0.00,,OVC003,0.00,VWS V14.01,2013-01-16 07:52:00,
2013-01-16 02:57:00,13.9,11.0,30.03,SW,218,2.0,0.0,88,0.00,,OVC003,0.00,VWS V14.01,2013-01-16 07:57:00,
2013-01-16 03:02:00,14.0,11.1,30.03,SW,218,2.0,0.0,88,0.00,,OVC003,0.00,VWS V14.01,2013-01-16 08:02:00,
2013-01-16 03:07:00,14.0,11.1,30.03,SW,217,2.0,0.0,88,0.00,,OVC003,0.00,VWS V14.01,2013-01-16 08:07:00,
2013-01-16 03:12:00,13.9,11.0,30.03,SW,218,2.0,0.0,88,0.00,,OVC003,0.00,VWS V14.01,2013-01-16 08:12:00,
2013-01-16 03:17:00,13.9,11.0,30.02,SW,217,2.0,0.0,88,0.00,,OVC003,0.00,VWS V14.01,2013-01-16 08:17:00,
2013-01-16 03:22:00,13.8,10.9,30.02,SW,218,2.0,0.0,88,0.00,,OVC003,0.00,VWS V14.01,2013-01-16 08:22:00,
2013-01-16 03:27:00,13.5,10.6,30.02,SW,218,2.0,0.0,88,0.00,,OVC003,0.00,VWS V14.01,2013-01-16 08:27:00,
2013-01-16 03:32:00,13.2,10.3,30.02,SW,217,2.0,0.0,88,0.00,,OVC003,0.00,VWS V14.01,2013-01-16 08:32:00,
2013-01-16 03:37:00,13.1,10.2,30.02,SW,218,2.0,0.0,88,0.00,,OVC003,0.00,VWS V14.01,2013-01-16 08:37:00,
2013-01-16 03:42:00,13.1,10.2,30.02,SW,217,2.0,0.0,88,0.00,,OVC003,0.00,VWS V14.01,2013-01-16 08:42:00,
2013-01-16 03:47:00,13.1,10.2,30.01,SW,218,2.0,0.0,88,0.00,,OVC003,0.00,VWS V14.01,2013-01-16 08:47:00,
2013-01-16 03:52:00,13.2,10.3,30.01,SW,217,2.0,0.0,88,0.00,,OVC003,0.00,VWS V14.01,2013-01-16 08:52:00,
2013-01-16 03:58:00,13.1,10.2,30.01,SW,218,2.0,0.0,88,0.00,,OVC003,0.00,VWS V14.01,2013-01-16 08:58:00,
2013-01-16 04:03:00,13.1,10.2,30.01,SW,218,2.0,0.0,88,0.00,,OVC003,0.00,VWS V14.01,2013-01-16 09:03:00,
2013-01-16 04:08:00,13.1,10.2,30.01,SW,217,2.0,2.0,88,0.00,,OVC003,0.00,VWS V14.01,2013-01-16 09:08:00,
2013-01-16 04:13:00,13.1,10.2,30.01,SW,218,2.0,0.0,88,0.00,,OVC003,0.00,VWS V14.01,2013-01-16 09:13:00,
2013-01-16 04:18:00,13.1,10.2,30.00,SW,217,2.0,0.0,88,0.00,,OVC003,0.00,VWS V14.01,2013-01-16 09:18:00,
2013-01-16 04:23:00,13.2,10.3,30.00,SW,217,2.0,2.0,88,0.00,,OVC003,0.00,VWS V14.01,2013-01-16 09:23:00,
2013-01-16 04:28:00,13.2,10.3,30.00,SW,217,2.0,2.0,88,0.00,,OVC003,0.00,VWS V14.01,2013-01-16 09:28:00,
2013-01-16 04:33:00,13.1,10.2,29.98,SW,217,2.0,0.0,88,0.00,,OVC003,0.00,VWS V14.01,2013-01-16 09:33:00,
2013-01-16 04:38:00,13.2,10.3,29.98,SW,217,2.0,0.0,88,0.00,,OVC003,0.00,VWS V14.01,2013-01-16 09:38:00,
2013-01-16 04:43:00,13.3,10.4,29.98,SW,218,2.0,0.0,88,0.00,,OVC003,0.00,VWS V14.01,2013-01-16 09:43:00,
2013-01-16 04:48:00,13.4,10.5,29.97,SW,217,2.0,0.0,88,0.00,,OVC003,0.00,VWS V14.01,2013-01-16 09:48:00,
2013-01-16 04:53:00,13.4,10.5,29.97,SW,217,2.0,0.0,88,0.00,,OVC003,0.00,VWS V14.01,2013-01-16 09:53:00,
2013-01-16 04:58:00,13.4,10.5,29.97,SW,218,2.0,0.0,88,0.00,,OVC003,0.00,VWS V14.01,2013-01-16 09:58:00,
2013-01-16 05:03:00,13.4,10.5,29.95,SW,218,2.0,0.0,88,0.00,,OVC003,0.00,VWS V14.01,2013-01-16 10:03:00,
2013-01-16 05:08:00,13.5,10.6,29.95,SW,218,2.0,0.0,88,0.00,,OVC003,0.00,VWS V14.01,2013-01-16 10:08:00,
2013-01-16 05:13:00,13.6,10.7,29.95,SW,217,2.0,0.0,88,0.00,,OVC003,0.00,VWS V14.01,2013-01-16 10:13:00,
2013-01-16 05:18:00,13.7,10.8,29.95,SW,217,2.0,0.0,88,0.00,,OVC003,0.00,VWS V14.01,2013-01-16 10:18:00,
2013-01-16 05:23:00,13.9,11.0,29.95,SW,217,2.0,0.0,88,0.00,,OVC003,0.00,VWS V14.01,2013-01-16 10:23:00,
2013-01-16 05:28:00,14.0,11.1,29.95,SW,217,2.0,0.0,88,0.00,,OVC003,0.00,VWS V14.01,2013-01-16 10:28:00,
2013-01-16 05:33:00,14.0,11.1,29.95,SW,217,2.0,0.0,88,0.00,,OVC003,0.00,VWS V14.01,2013-01-16 10:33:00,
2013-01-16 05:38:00,14.2,11.3,29.95,SW,218,2.0,0.0,88,0.00,,OVC003,0.00,VWS V14.01,2013-01-16 10:38:00,
2013-01-16 05:43:00,14.3,11.4,29.95,SW,217,2.0,0.0,88,0.00,,OVC003,0.00,VWS V14.01,2013-01-16 10:43:00,
2013-01-16 05:48:00,14.3,11.4,29.94,SW,218,2.0,0.0,88,0.00,,OVC003,0.00,VWS V14.01,2013-01-16 10:48:00,
2013-01-16 05:53:00,14.3,11.4,29.94,SW,217,2.0,0.0,88,0.00,,OVC003,0.00,VWS V14.01,2013-01-16 10:53:00,
2013-01-16 05:59:00,14.4,11.5,29.94,SW,218,2.0,0.0,88,0.00,,OVC003,0.00,VWS V14.01,2013-01-16 10:59:00,
2013-01-16 06:04:00,14.6,11.9,29.93,SW,218,2.0,0.0,89,0.00,,OVC003,0.00,VWS V14.01,2013-01-16 11:04:00,
2013-01-16 06:09:00,14.7,12.1,29.93,SW,217,2.0,0.0,89,0.00,,OVC003,0.00,VWS V14.01,2013-01-16 11:09:00,
2013-01-16 06:14:00,14.7,11.8,29.93,SW,218,2.0,0.0,88,0.00,,OVC003,0.00,VWS V14.01,2013-01-16 11:14:00,
2013-01-16 06:19:00,14.8,11.9,29.93,SW,217,2.0,0.0,88,0.00,,OVC003,0.00,VWS V14.01,2013-01-16 11:19:00,
2013-01-16 06:24:00,14.8,12.1,29.93,SW,218,2.0,0.0,89,0.00,,OVC003,0.00,VWS V14.01,2013-01-16 11:24:00,
2013-01-16 06:29:00,15.0,12.4,29.93,SW,217,2.0,0.0,89,0.00,,OVC003,0.00,VWS V14.01,2013-01-16 11:29:00,
2013-01-16 06:34:00,15.1,12.4,29.92,SW,217,2.0,0.0,89,0.00,,OVC003,0.00,VWS V14.01,2013-01-16 11:34:00,
2013-01-16 06:39:00,15.1,12.4,29.92,SW,217,2.0,0.0,89,0.00,,OVC003,0.00,VWS V14.01,2013-01-16 11:39:00,
2013-01-16 06:44:00,14.9,12.0,29.92,SW,217,2.0,0.0,88,0.00,,OVC003,0.00,VWS V14.01,2013-01-16 11:44:00,
2013-01-16 06:49:00,14.6,11.7,29.92,SW,218,2.0,0.0,88,0.00,,OVC003,0.00,VWS V14.01,2013-01-16 11:49:00,
2013-01-16 06:54:00,14.4,11.5,29.92,SW,218,2.0,0.0,88,0.00,,OVC003,0.00,VWS V14.01,2013-01-16 11:54:00,
2013-01-16 06:59:00,14.3,11.4,29.92,SW,217,2.0,0.0,88,0.00,,OVC003,0.00,VWS V14.01,2013-01-16 11:59:00,
2013-01-16 07:04:00,14.3,11.4,29.91,SW,218,2.0,0.0,88,0.00,,OVC003,0.00,VWS V14.01,2013-01-16 12:04:00,
2013-01-16 07:09:00,14.2,11.3,29.91,SW,217,2.0,0.0,88,0.00,,OVC003,0.00,VWS V14.01,2013-01-16 12:09:00,
2013-01-16 07:14:00,14.3,11.4,29.91,SW,218,2.0,2.0,88,0.00,,OVC003,0.00,VWS V14.01,2013-01-16 12:14:00,
2013-01-16 07:19:00,14.4,11.5,29.90,SW,218,2.0,0.0,88,0.00,,OVC003,0.00,VWS V14.01,2013-01-16 12:19:00,
2013-01-16 07:24:00,14.5,11.9,29.90,SW,217,2.0,0.0,89,0.00,,OVC003,0.00,VWS V14.01,2013-01-16 12:24:00,
2013-01-16 07:29:00,14.8,12.1,29.90,SW,218,2.0,0.0,89,0.00,,OVC003,0.00,VWS V14.01,2013-01-16 12:29:00,
2013-01-16 07:34:00,15.0,12.4,29.90,SW,217,2.0,0.0,89,0.00,,OVC003,0.00,VWS V14.01,2013-01-16 12:34:00,
2013-01-16 07:39:00,15.1,12.4,29.90,SW,218,2.0,0.0,89,0.00,,OVC003,0.00,VWS V14.01,2013-01-16 12:39:00,
2013-01-16 07:44:00,15.1,12.4,29.90,SW,217,2.0,0.0,89,0.00,,OVC003,0.00,VWS V14.01,2013-01-16 12:44:00,
2013-01-16 07:49:00,15.2,12.6,29.89,SW,218,2.0,0.0,89,0.00,,OVC003,0.00,VWS V14.01,2013-01-16 12:49:00,
2013-01-16 07:54:00,15.3,12.6,29.89,SW,217,2.0,0.0,89,0.00,,OVC003,0.00,VWS V14.01,2013-01-16 12:54:00,
2013-01-16 07:59:00,15.3,12.6,29.89,SW,218,2.0,0.0,89,0.00,,OVC003,0.00,VWS V14.01,2013-01-16 12:59:00,
2013-01-16 08:04:00,15.5,12.8,29.89,SW,217,2.0,0.0,89,0.00,,OVC003,0.00,VWS V14.01,2013-01-16 13:04:00,
2013-01-16 08:09:00,15.6,12.9,29.89,SW,218,2.0,0.0,89,0.00,,OVC003,0.00,VWS V14.01,2013-01-16 13:09:00,
2013-01-16 08:14:00,15.6,12.7,29.89,SW,217,2.0,0.0,88,0.00,,OVC003,0.00,VWS V14.01,2013-01-16 13:14:00,
2013-01-16 08:19:00,15.8,13.1,29.88,SW,218,2.0,2.0,89,0.00,,OVC003,0.00,VWS V14.01,2013-01-16 13:19:00,
2013-01-16 08:24:00,15.9,13.2,29.88,SW,217,2.0,2.0,89,0.00,,OVC003,0.00,VWS V14.01,2013-01-16 13:24:00,
2013-01-16 08:29:00,16.0,13.3,29.88,SW,218,2.0,0.0,89,0.00,,OVC003,0.00,VWS V14.01,2013-01-16 13:29:00,
2013-01-16 08:34:00,16.1,13.4,29.88,SW,217,2.0,2.0,89,0.00,,OVC003,0.00,VWS V14.01,2013-01-16 13:34:00,
2013-01-16 08:39:00,16.2,13.5,29.88,SW,217,2.0,2.0,89,0.00,,OVC003,0.00,VWS V14.01,2013-01-16 13:39:00,
2013-01-16 08:44:00,16.3,13.6,29.88,SW,217,2.0,2.0,89,0.00,,OVC003,0.00,VWS V14.01,2013-01-16 13:44:00,
2013-01-16 08:49:00,16.4,13.7,29.88,SW,217,2.0,2.0,89,0.00,,OVC003,0.00,VWS V14.01,2013-01-16 13:49:00,
2013-01-16 08:54:00,16.5,13.8,29.88,SW,217,2.0,0.0,89,0.00,,OVC003,0.00,VWS V14.01,2013-01-16 13:54:00,
2013-01-16 08:59:00,16.8,14.1,29.88,SW,218,2.0,2.0,89,0.00,,OVC003,0.00,VWS V14.01,2013-01-16 13:59:00,
2013-01-16 09:04:00,17.0,14.3,29.88,SW,217,2.0,0.0,89,0.00,,OVC003,0.00,VWS V14.01,2013-01-16 14:04:00,
2013-01-16 09:09:00,17.3,14.6,29.88,SW,217,2.0,0.0,89,0.00,,OVC003,0.00,VWS V14.01,2013-01-16 14:09:00,
2013-01-16 09:15:00,17.7,15.0,29.88,SW,217,2.0,2.0,89,0.00,,OVC003,0.00,VWS V14.01,2013-01-16 14:15:00,
2013-01-16 09:20:00,18.2,15.5,29.87,SW,217,2.0,2.0,89,0.00,,OVC003,0.00,VWS V14.01,2013-01-16 14:20:00,
2013-01-16 09:25:00,18.7,16.0,29.87,SW,218,2.0,2.0,89,0.00,,OVC003,0.00,VWS V14.01,2013-01-16 14:25:00,
2013-01-16 09:30:00,19.5,17.0,29.87,SSW,207,3.0,3.0,90,0.00,,OVC003,0.00,VWS V14.01,2013-01-16 14:30:00,
2013-01-16 09:35:00,20.1,17.6,29.87,South,187,3.0,3.0,90,0.00,,OVC003,0.00,VWS V14.01,2013-01-16 14:35:00,
2013-01-16 09:40:00,20.8,18.1,29.87,South,178,4.0,4.0,89,0.00,,OVC003,0.00,VWS V14.01,2013-01-16 14:40:00,
2013-01-16 09:45:00,21.2,18.5,29.87,SW,222,6.0,6.0,89,0.00,,OVC003,0.00,VWS V14.01,2013-01-16 14:45:00,
2013-01-16 09:50:00,21.6,18.9,29.86,WSW,237,4.0,6.0,89,0.00,,OVC003,0.00,VWS V14.01,2013-01-16 14:50:00,
2013-01-16 09:55:00,22.1,19.1,29.86,SW,224,5.0,5.0,88,0.00,,OVC003,0.00,VWS V14.01,2013-01-16 14:55:00,
2013-01-16 10:00:00,22.6,19.6,29.86,SSW,203,5.0,5.0,88,0.00,,OVC003,0.00,VWS V14.01,2013-01-16 15:00:00,
2013-01-16 10:05:00,23.3,20.0,29.84,SW,226,3.0,3.0,87,0.00,,OVC003,0.00,VWS V14.01,2013-01-16 15:05:00,
2013-01-16 10:10:00,23.9,20.6,29.84,SSW,206,6.0,6.0,87,0.00,,OVC003,0.00,VWS V14.01,2013-01-16 15:10:00,
2013-01-16 10:15:00,24.4,20.8,29.84,SW,224,4.0,5.0,86,0.00,,OVC003,0.00,VWS V14.01,2013-01-16 15:15:00,
2013-01-16 10:20:00,24.8,20.9,29.83,SSW,198,4.0,6.0,85,0.00,,OVC003,0.00,VWS V14.01,2013-01-16 15:20:00,
2013-01-16 10:25:00,25.1,21.0,29.83,SW,226,3.0,6.0,84,0.00,,OVC003,0.00,VWS V14.01,2013-01-16 15:25:00,
2013-01-16 10:30:00,25.6,21.5,29.83,SSW,205,9.0,9.0,84,0.00,,OVC003,0.00,VWS V14.01,2013-01-16 15:30:00,
2013-01-16 10:35:00,25.9,21.5,29.82,SSW,197,9.0,9.0,83,0.00,,OVC003,0.00,VWS V14.01,2013-01-16 15:35:00,
2013-01-16 10:40:00,26.1,21.4,29.82,WSW,256,2.0,4.0,82,0.00,,OVC003,0.00,VWS V14.01,2013-01-16 15:40:00,
2013-01-16 10:45:00,26.3,21.6,29.82,SSW,202,6.0,6.0,82,0.00,,OVC003,0.00,VWS V14.01,2013-01-16 15:45:00,
2013-01-16 10:50:00,26.6,21.6,29.82,South,182,9.0,11.0,81,0.00,,OVC003,0.00,VWS V14.01,2013-01-16 15:50:00,
2013-01-16 10:55:00,26.9,21.9,29.82,South,191,4.0,4.0,81,0.00,,OVC003,0.00,VWS V14.01,2013-01-16 15:55:00,
2013-01-16 11:00:00,27.1,22.1,29.82,SSE,163,5.0,7.0,81,0.00,,OVC003,0.00,VWS V14.01,2013-01-16 16:00:00,
2013-01-16 11:05:00,27.4,22.0,29.80,SW,216,7.0,7.0,80,0.00,,OVC003,0.00,VWS V14.01,2013-01-16 16:05:00,
2013-01-16 11:10:00,27.6,22.2,29.80,SSW,203,7.0,7.0,80,0.00,,OVC003,0.00,VWS V14.01,2013-01-16 16:10:00,
2013-01-16 11:15:00,27.8,22.1,29.80,SSW,201,4.0,6.0,79,0.00,,OVC003,0.00,VWS V14.01,2013-01-16 16:15:00,
2013-01-16 11:20:00,28.0,22.3,29.79,SE,139,4.0,7.0,79,0.00,,OVC003,0.00,VWS V14.01,2013-01-16 16:20:00,
2013-01-16 11:25:00,28.4,22.7,29.79,SSW,201,5.0,6.0,79,0.00,,OVC003,0.00,VWS V14.01,2013-01-16 16:25:00,
2013-01-16 11:30:00,28.7,22.7,29.79,WSW,243,8.0,10.0,78,0.00,,OVC003,0.00,VWS V14.01,2013-01-16 16:30:00,
2013-01-16 11:35:00,29.0,22.7,29.78,SSW,206,8.0,14.0,77,0.00,,OVC003,0.00,VWS V14.01,2013-01-16 16:35:00,
2013-01-16 11:40:00,29.3,23.0,29.78,SSE,167,4.0,7.0,77,0.00,,OVC003,0.00,VWS V14.01,2013-01-16 16:40:00,
2013-01-16 11:45:00,29.6,23.3,29.78,South,179,5.0,6.0,77,0.00,,OVC003,0.00,VWS V14.01,2013-01-16 16:45:00,
2013-01-16 11:50:00,29.9,23.3,29.77,SSW,201,7.0,9.0,76,0.00,,OVC003,0.00,VWS V14.01,2013-01-16 16:50:00,
2013-01-16 11:55:00,29.8,23.2,29.77,South,187,8.0,8.0,76,0.00,,OVC003,0.00,VWS V14.01,2013-01-16 16:55:00,
2013-01-16 12:00:00,29.7,22.8,29.77,SW,226,6.0,12.0,75,0.00,,OVC003,0.00,VWS V14.01,2013-01-16 17:00:00,
2013-01-16 12:05:00,29.7,22.8,29.77,SSW,205,3.0,10.0,75,0.00,,OVC003,0.00,VWS V14.01,2013-01-16 17:05:00,
2013-01-16 12:10:00,29.7,22.8,29.77,West,263,4.0,9.0,75,0.00,,OVC003,0.00,VWS V14.01,2013-01-16 17:10:00,
2013-01-16 12:15:00,29.8,23.2,29.77,SW,234,7.0,8.0,76,0.00,,OVC003,0.00,VWS V14.01,2013-01-16 17:15:00,
2013-01-16 12:20:00,29.9,23.3,29.75,SSW,207,9.0,11.0,76,0.00,,OVC003,0.00,VWS V14.01,2013-01-16 17:20:00,
2013-01-16 12:25:00,30.1,23.5,29.75,SSW,209,4.0,5.0,76,0.00,,OVC003,0.00,VWS V14.01,2013-01-16 17:25:00,
2013-01-16 12:30:00,30.4,23.4,29.75,SW,233,8.0,8.0,75,0.00,,OVC003,0.00,VWS V14.01,2013-01-16 17:30:00,
2013-01-16 12:35:00,30.3,23.0,29.75,SW,231,7.0,7.0,74,0.00,,OVC003,0.00,VWS V14.01,2013-01-16 17:35:00,
2013-01-16 12:40:00,30.6,23.6,29.75,WSW,241,5.0,6.0,75,0.00,,OVC003,0.00,VWS V14.01,2013-01-16 17:40:00,
2013-01-16 12:45:00,31.1,24.1,29.75,SW,224,5.0,6.0,75,0.00,,OVC003,0.00,VWS V14.01,2013-01-16 17:45:00,
2013-01-16 12:50:00,31.5,23.9,29.73,SW,219,7.0,7.0,73,0.00,,OVC003,0.00,VWS V14.01,2013-01-16 17:50:00,
2013-01-16 12:55:00,31.6,23.6,29.73,South,171,6.0,11.0,72,0.00,,OVC003,0.00,VWS V14.01,2013-01-16 17:55:00,
2013-01-16 13:01:00,31.6,23.6,29.73,WSW,247,8.0,8.0,72,0.00,,OVC003,0.00,VWS V14.01,2013-01-16 18:01:00,
2013-01-16 13:06:00,31.7,24.0,29.72,SW,233,7.0,7.0,73,0.00,,OVC003,0.00,VWS V14.01,2013-01-16 18:06:00,
2013-01-16 13:11:00,31.9,23.6,29.72,SSE,147,9.0,9.0,71,0.00,,OVC003,0.00,VWS V14.01,2013-01-16 18:11:00,
2013-01-16 13:16:00,32.1,22.8,29.72,SSW,210,6.0,9.0,68,0.00,,OVC003,0.00,VWS V14.01,2013-01-16 18:16:00,
2013-01-16 13:21:00,32.5,22.8,29.71,WNW,282,12.0,12.0,67,0.00,,OVC003,0.00,VWS V14.01,2013-01-16 18:21:00,
2013-01-16 13:26:00,32.6,22.5,29.71,SSW,199,5.0,8.0,66,0.00,,OVC003,0.00,VWS V14.01,2013-01-16 18:26:00,
2013-01-16 13:31:00,32.9,22.4,29.71,SW,236,11.0,13.0,65,0.00,,OVC003,0.00,VWS V14.01,2013-01-16 18:31:00,
2013-01-16 13:36:00,33.2,22.7,29.70,SW,234,9.0,13.0,65,0.00,,OVC003,0.00,VWS V14.01,2013-01-16 18:36:00,
2013-01-16 13:41:00,33.4,22.9,29.70,WSW,239,6.0,6.0,65,0.00,,OVC003,0.00,VWS V14.01,2013-01-16 18:41:00,
2013-01-16 13:46:00,33.5,22.3,29.70,SW,216,6.0,12.0,63,0.00,,OVC003,0.00,VWS V14.01,2013-01-16 18:46:00,
2013-01-16 13:51:00,33.6,22.4,29.69,SW,230,3.0,20.0,63,0.00,,OVC003,0.00,VWS V14.01,2013-01-16 18:51:00,
2013-01-16 13:56:00,33.7,22.1,29.69,SSW,210,7.0,13.0,62,0.00,,OVC003,0.00,VWS V14.01,2013-01-16 18:56:00,
2013-01-16 14:01:00,33.8,22.2,29.69,SSW,208,5.0,10.0,62,0.00,,OVC003,0.00,VWS V14.01,2013-01-16 19:01:00,
2013-01-16 14:06:00,34.1,22.8,29.68,SW,220,6.0,7.0,63,0.00,,OVC003,0.00,VWS V14.01,2013-01-16 19:06:00,
2013-01-16 14:11:00,34.4,22.7,29.68,WSW,241,8.0,9.0,62,0.00,,OVC003,0.00,VWS V14.01,2013-01-16 19:11:00,
2013-01-16 14:16:00,34.5,22.5,29.68,South,178,10.0,11.0,61,0.00,,OVC003,0.00,VWS V14.01,2013-01-16 19:16:00,
2013-01-16 14:21:00,34.7,22.6,29.67,WSW,247,6.0,7.0,61,0.00,,OVC003,0.00,VWS V14.01,2013-01-16 19:21:00,
2013-01-16 14:26:00,34.8,22.3,29.67,SW,233,7.0,14.0,60,0.00,,OVC003,0.00,VWS V14.01,2013-01-16 19:26:00,
2013-01-16 14:31:00,35.1,22.6,29.67,WSW,247,9.0,10.0,60,0.00,,OVC003,0.00,VWS V14.01,2013-01-16 19:31:00,
2013-01-16 14:36:00,35.3,22.4,29.67,WSW,245,4.0,12.0,59,0.00,,OVC003,0.00,VWS V14.01,2013-01-16 19:36:00,
2013-01-16 14:41:00,35.5,22.6,29.67,WSW,251,6.0,10.0,59,0.00,,OVC003,0.00,VWS V14.01,2013-01-16 19:41:00,
2013-01-16 14:46:00,35.6,22.3,29.67,SW,229,7.0,13.0,58,0.00,,OVC003,0.00,VWS V14.01,2013-01-16 19:46:00,
2013-01-16 14:51:00,35.6,22.3,29.67,NW,317,6.0,9.0,58,0.00,,OVC003,0.00,VWS V14.01,2013-01-16 19:51:00,
2013-01-16 14:56:00,35.6,21.9,29.67,NNW,337,4.0,9.0,57,0.00,,OVC003,0.00,VWS V14.01,2013-01-16 19:56:00,
2013-01-16 15:01:00,35.6,21.9,29.67,SW,233,5.0,9.0,57,0.00,,OVC003,0.00,VWS V14.01,2013-01-16 20:01:00,
2013-01-16 15:06:00,35.5,22.2,29.68,SW,226,7.0,7.0,58,0.00,,OVC003,0.00,VWS V14.01,2013-01-16 20:06:00,
2013-01-16 15:11:00,35.5,22.6,29.68,SE,144,10.0,10.0,59,0.00,,OVC003,0.00,VWS V14.01,2013-01-16 20:11:00,
2013-01-16 15:16:00,35.4,22.5,29.68,SW,233,7.0,11.0,59,0.00,,OVC003,0.00,VWS V14.01,2013-01-16 20:16:00,
2013-01-16 15:21:00,35.3,22.8,29.67,SW,214,5.0,12.0,60,0.00,,OVC003,0.00,VWS V14.01,2013-01-16 20:21:00,
2013-01-16 15:26:00,35.2,22.7,29.67,WSW,245,5.0,12.0,60,0.00,,OVC003,0.00,VWS V14.01,2013-01-16 20:26:00,
2013-01-16 15:31:00,35.3,23.2,29.67,West,279,3.0,6.0,61,0.00,,OVC003,0.00,VWS V14.01,2013-01-16 20:31:00,
2013-01-16 15:36:00,35.1,23.0,29.68,NW,317,7.0,18.0,61,0.00,,OVC003,0.00,VWS V14.01,2013-01-16 20:36:00,
2013-01-16 15:41:00,35.0,23.3,29.68,SW,222,7.0,10.0,62,0.00,,OVC003,0.00,VWS V14.01,2013-01-16 20:41:00,
2013-01-16 15:46:00,34.8,23.1,29.68,WSW,248,15.0,15.0,62,0.00,,OVC003,0.00,VWS V14.01,2013-01-16 20:46:00,
2013-01-16 15:51:00,34.7,23.0,29.69,SSW,193,4.0,13.0,62,0.00,,OVC003,0.00,VWS V14.01,2013-01-16 20:51:00,
2013-01-16 15:56:00,34.6,23.3,29.69,West,261,7.0,10.0,63,0.00,,OVC003,0.00,VWS V14.01,2013-01-16 20:56:00,
2013-01-16 16:01:00,34.4,23.1,29.69,SSE,164,4.0,7.0,63,0.00,,OVC003,0.00,VWS V14.01,2013-01-16 21:01:00,
2013-01-16 16:06:00,34.4,23.1,29.71,WSW,238,13.0,13.0,63,0.00,,OVC003,0.00,VWS V14.01,2013-01-16 21:06:00,
2013-01-16 16:12:00,34.4,23.1,29.71,SW,236,4.0,10.0,63,0.00,,OVC003,0.00,VWS V14.01,2013-01-16 21:12:00,
2013-01-16 16:17:00,34.4,23.5,29.71,West,274,8.0,9.0,64,0.00,,OVC003,0.00,VWS V14.01,2013-01-16 21:17:00,
2013-01-16 16:22:00,34.3,23.4,29.71,NW,306,4.0,4.0,64,0.00,,OVC003,0.00,VWS V14.01,2013-01-16 21:22:00,
2013-01-16 16:27:00,34.3,23.4,29.71,SW,225,10.0,11.0,64,0.00,,OVC003,0.00,VWS V14.01,2013-01-16 21:27:00,
2013-01-16 16:32:00,34.2,23.7,29.71,WSW,248,3.0,7.0,65,0.00,,OVC003,0.00,VWS V14.01,2013-01-16 21:32:00,
2013-01-16 16:37:00,34.2,24.0,29.71,SW,228,4.0,16.0,66,0.00,,OVC003,0.00,VWS V14.01,2013-01-16 21:37:00,
2013-01-16 16:42:00,34.1,24.0,29.71,WSW,251,5.0,13.0,66,0.00,,OVC003,0.00,VWS V14.01,2013-01-16 21:42:00,
2013-01-16 16:47:00,33.9,23.8,29.71,West,267,4.0,16.0,66,0.00,,OVC003,0.00,VWS V14.01,2013-01-16 21:47:00,
2013-01-16 16:52:00,33.8,24.0,29.72,WSW,257,3.0,13.0,67,0.00,,OVC003,0.00,VWS V14.01,2013-01-16 21:52:00,
2013-01-16 16:57:00,33.7,23.9,29.72,WNW,298,6.0,13.0,67,0.00,,OVC003,0.00,VWS V14.01,2013-01-16 21:57:00,
2013-01-16 17:02:00,33.6,24.2,29.72,WSW,241,3.0,7.0,68,0.00,,OVC003,0.00,VWS V14.01,2013-01-16 22:02:00,
2013-01-16 17:07:00,33.5,24.4,29.72,West,264,2.0,10.0,69,0.00,,OVC003,0.00,VWS V14.01,2013-01-16 22:07:00,
2013-01-16 17:12:00,33.4,24.3,29.72,WNW,293,8.0,8.0,69,0.00,,OVC003,0.00,VWS V14.01,2013-01-16 22:12:00,
2013-01-16 17:17:00,33.3,24.6,29.72,NW,312,7.0,9.0,70,0.00,,OVC003,0.00,VWS V14.01,2013-01-16 22:17:00,
2013-01-16 17:22:00,33.2,24.8,29.73,WSW,251,4.0,16.0,71,0.00,,OVC003,0.00,VWS V14.01,2013-01-16 22:22:00,
2013-01-16 17:27:00,33.0,24.6,29.73,NNW,328,5.0,7.0,71,0.00,,OVC003,0.00,VWS V14.01,2013-01-16 22:27:00,
2013-01-16 17:32:00,32.8,24.8,29.74,WSW,237,3.0,8.0,72,0.00,,OVC003,0.00,VWS V14.01,2013-01-16 22:32:00,
2013-01-16 17:37:00,32.8,24.8,29.74,SW,234,11.0,11.0,72,0.00,,OVC003,0.00,VWS V14.01,2013-01-16 22:37:00,
2013-01-16 17:42:00,32.7,25.0,29.74,WNW,303,6.0,10.0,73,0.00,,OVC003,0.00,VWS V14.01,2013-01-16 22:42:00,
2013-01-16 17:47:00,32.7,25.0,29.74,West,270,9.0,9.0,73,0.00,,OVC003,0.00,VWS V14.01,2013-01-16 22:47:00,
2013-01-16 17:52:00,32.6,25.2,29.74,SSW,199,5.0,7.0,74,0.00,,OVC003,0.00,VWS V14.01,2013-01-16 22:52:00,
2013-01-16 17:57:00,32.6,25.2,29.74,SSW,205,7.0,7.0,74,0.00,,OVC003,0.00,VWS V14.01,2013-01-16 22:57:00,
2013-01-16 18:02:00,32.6,25.6,29.74,SSW,205,6.0,9.0,75,0.00,,OVC003,0.00,VWS V14.01,2013-01-16 23:02:00,
2013-01-16 18:07:00,32.6,25.9,29.74,SSW,204,5.0,10.0,76,0.00,,OVC003,0.00,VWS V14.01,2013-01-16 23:07:00,
2013-01-16 18:12:00,32.6,26.5,29.74,WSW,245,7.0,10.0,78,0.00,,OVC003,0.00,VWS V14.01,2013-01-16 23:12:00,
2013-01-16 18:17:00,32.5,26.7,29.75,South,182,10.0,10.0,79,0.00,,OVC003,0.00,VWS V14.01,2013-01-16 23:17:00,
2013-01-16 18:22:00,32.5,27.0,29.75,West,270,6.0,10.0,80,0.00,,OVC003,0.00,VWS V14.01,2013-01-16 23:22:00,
2013-01-16 18:27:00,32.4,27.2,29.75,SW,221,4.0,7.0,81,0.00,,OVC003,0.00,VWS V14.01,2013-01-16 23:27:00,
2013-01-16 18:32:00,32.2,27.3,29.77,South,186,9.0,17.0,82,0.00,,OVC003,0.00,VWS V14.01,2013-01-16 23:32:00,
2013-01-16 18:37:00,32.1,27.5,29.77,West,278,4.0,6.0,83,0.00,,OVC003,0.00,VWS V14.01,2013-01-16 23:37:00,
2013-01-16 18:42:00,32.0,27.4,29.77,SW,234,2.0,10.0,83,0.00,,OVC003,0.00,VWS V14.01,2013-01-16 23:42:00,
2013-01-16 18:47:00,32.0,27.7,29.77,SSW,211,3.0,10.0,84,0.00,,OVC003,0.00,VWS V14.01,2013-01-16 23:47:00,
2013-01-16 18:52:00,31.9,27.9,29.77,SW,228,5.0,10.0,85,0.00,,OVC003,0.00,VWS V14.01,2013-01-16 23:52:00,
2013-01-16 18:57:00,31.9,27.9,29.77,West,261,4.0,4.0,85,0.00,,OVC003,0.00,VWS V14.01,2013-01-16 23:57:00,
2013-01-16 19:02:00,31.9,28.2,29.78,WSW,255,4.0,8.0,86,0.00,,OVC003,0.00,VWS V14.01,2013-01-17 00:02:00,
2013-01-16 19:07:00,31.9,28.2,29.78,West,259,6.0,9.0,86,0.00,,OVC003,0.00,VWS V14.01,2013-01-17 00:07:00,
2013-01-16 19:12:00,32.0,28.3,29.78,SW,232,3.0,10.0,86,0.00,,OVC003,0.00,VWS V14.01,2013-01-17 00:12:00,
2013-01-16 19:17:00,32.0,28.3,29.78,WNW,285,3.0,12.0,86,0.00,,OVC003,0.00,VWS V14.01,2013-01-17 00:17:00,
2013-01-16 19:23:00,32.1,28.4,29.78,SW,222,4.0,4.0,86,0.00,,OVC003,0.00,VWS V14.01,2013-01-17 00:23:00,
2013-01-16 19:28:00,32.1,28.4,29.78,WSW,255,5.0,5.0,86,0.00,,OVC003,0.00,VWS V14.01,2013-01-17 00:28:00,
2013-01-16 19:33:00,32.1,28.7,29.79,SW,214,6.0,6.0,87,0.00,,OVC003,0.00,VWS V14.01,2013-01-17 00:33:00,
2013-01-16 19:38:00,32.2,28.8,29.79,WNW,290,5.0,5.0,87,0.00,,OVC003,0.00,VWS V14.01,2013-01-17 00:38:00,
2013-01-16 19:43:00,32.1,28.7,29.79,WNW,298,4.0,6.0,87,0.00,,OVC003,0.00,VWS V14.01,2013-01-17 00:43:00,
2013-01-16 19:48:00,32.1,28.7,29.80,SSW,211,5.0,6.0,87,0.00,,OVC003,0.00,VWS V14.01,2013-01-17 00:48:00,
2013-01-16 19:53:00,32.1,28.7,29.80,SW,221,3.0,6.0,87,0.00,,OVC003,0.00,VWS V14.01,2013-01-17 00:53:00,
2013-01-16 19:58:00,32.1,28.7,29.80,SSW,201,4.0,6.0,87,0.00,,OVC003,0.00,VWS V14.01,2013-01-17 00:58:00,
2013-01-16 20:03:00,32.0,28.6,29.79,SSW,193,2.0,3.0,87,0.00,,OVC003,0.00,VWS V14.01,2013-01-17 01:03:00,
2013-01-16 20:08:00,32.0,28.6,29.79,SW,229,5.0,5.0,87,0.00,,OVC003,0.00,VWS V14.01,2013-01-17 01:08:00,
2013-01-16 20:13:00,32.0,28.6,29.79,SW,232,4.0,6.0,87,0.00,,OVC003,0.00,VWS V14.01,2013-01-17 01:13:00,
2013-01-16 20:18:00,32.1,28.7,29.80,SW,222,5.0,7.0,87,0.00,,OVC003,0.00,VWS V14.01,2013-01-17 01:18:00,
2013-01-16 20:23:00,32.1,28.7,29.80,West,263,2.0,6.0,87,0.00,,OVC003,0.00,VWS V14.01,2013-01-17 01:23:00,
2013-01-16 20:28:00,32.2,28.5,29.80,West,272,4.0,5.0,86,0.00,,OVC003,0.00,VWS V14.01,2013-01-17 01:28:00,
2013-01-16 20:33:00,32.2,28.5,29.80,SW,224,6.0,6.0,86,0.00,,OVC003,0.00,VWS V14.01,2013-01-17 01:33:00,
2013-01-16 20:38:00,32.3,28.6,29.80,SW,236,2.0,6.0,86,0.00,,OVC003,0.00,VWS V14.01,2013-01-17 01:38:00,
2013-01-16 20:43:00,32.3,28.6,29.80,WNW,284,5.0,7.0,86,0.00,,OVC003,0.00,VWS V14.01,2013-01-17 01:43:00,
2013-01-16 20:48:00,32.4,28.4,29.81,SSW,213,3.0,3.0,85,0.00,,OVC003,0.00,VWS V14.01,2013-01-17 01:48:00,
2013-01-16 20:53:00,32.4,28.4,29.81,SW,227,6.0,6.0,85,0.00,,OVC003,0.00,VWS V14.01,2013-01-17 01:53:00,
2013-01-16 20:58:00,32.4,28.4,29.81,SSW,210,4.0,6.0,85,0.00,,OVC003,0.00,VWS V14.01,2013-01-17 01:58:00,
2013-01-16 21:03:00,32.5,28.5,29.81,NW,317,3.0,3.0,85,0.00,,OVC003,0.00,VWS V14.01,2013-01-17 02:03:00,
2013-01-16 21:09:00,32.5,28.5,29.81,West,272,3.0,3.0,85,0.00,,OVC003,0.00,VWS V14.01,2013-01-17 02:09:00,
2013-01-16 21:14:00,32.5,28.5,29.81,WSW,245,4.0,4.0,85,0.00,,OVC003,0.00,VWS V14.01,2013-01-17 02:14:00,
2013-01-16 21:19:00,32.6,28.3,29.82,NW,312,2.0,2.0,84,0.00,,OVC003,0.00,VWS V14.01,2013-01-17 02:19:00,
2013-01-16 21:24:00,32.6,28.3,29.82,WSW,237,2.0,3.0,84,0.00,,OVC003,0.00,VWS V14.01,2013-01-17 02:24:00,
2013-01-16 21:29:00,32.6,28.3,29.82,SW,228,8.0,8.0,84,0.00,,OVC003,0.00,VWS V14.01,2013-01-17 02:29:00,
2013-01-16 21:34:00,32.7,28.4,29.83,West,261,5.0,5.0,84,0.00,,OVC003,0.00,VWS V14.01,2013-01-17 02:34:00,
2013-01-16 21:39:00,32.6,28.3,29.83,WSW,238,2.0,3.0,84,0.00,,OVC003,0.00,VWS V14.01,2013-01-17 02:39:00,
2013-01-16 21:44:00,32.6,28.3,29.83,WSW,238,3.0,3.0,84,0.00,,OVC003,0.00,VWS V14.01,2013-01-17 02:44:00,
2013-01-16 21:49:00,32.6,28.3,29.83,SW,226,2.0,3.0,84,0.00,,OVC003,0.00,VWS V14.01,2013-01-17 02:49:00,
2013-01-16 21:54:00,32.6,28.3,29.83,NNW,342,2.0,0.0,84,0.00,,OVC003,0.00,VWS V14.01,2013-01-17 02:54:00,
2013-01-16 21:59:00,32.5,28.2,29.83,NNW,343,2.0,2.0,84,0.00,,OVC003,0.00,VWS V14.01,2013-01-17 02:59:00,
2013-01-16 22:04:00,32.4,28.4,29.84,SW,214,4.0,4.0,85,0.00,,OVC003,0.00,VWS V14.01,2013-01-17 03:04:00,
2013-01-16 22:09:00,32.4,30.1,29.84,West,268,2.0,3.0,91,0.00,,OVC003,0.00,VWS V14.01,2013-01-17 03:09:00,
2013-01-16 22:14:00,32.3,28.3,29.84,West,268,3.0,3.0,85,0.00,,OVC003,0.00,VWS V14.01,2013-01-17 03:14:00,
2013-01-16 22:19:00,32.2,28.5,29.84,SW,234,3.0,3.0,86,0.00,,OVC003,0.00,VWS V14.01,2013-01-17 03:19:00,
2013-01-16 22:24:00,32.1,28.4,29.84,SSW,207,2.0,2.0,86,0.00,,OVC003,0.00,VWS V14.01,2013-01-17 03:24:00,
2013-01-16 22:29:00,32.1,28.4,29.84,WSW,257,2.0,5.0,86,0.00,,OVC003,0.00,VWS V14.01,2013-01-17 03:29:00,
2013-01-16 22:34:00,32.0,28.3,29.84,SW,233,2.0,2.0,86,0.00,,OVC003,0.00,VWS V14.01,2013-01-17 03:34:00,
2013-01-16 22:39:00,31.8,28.4,29.84,WNW,282,3.0,3.0,87,0.00,,OVC003,0.00,VWS V14.01,2013-01-17 03:39:00,
2013-01-16 22:45:00,31.7,28.3,29.84,West,264,2.0,3.0,87,0.00,,OVC003,0.00,VWS V14.01,2013-01-17 03:45:00,
2013-01-16 22:50:00,31.6,28.2,29.85,WSW,252,4.0,4.0,87,0.00,,OVC003,0.00,VWS V14.01,2013-01-17 03:50:00,
2013-01-16 22:55:00,31.5,28.1,29.85,South,187,4.0,4.0,87,0.00,,OVC003,0.00,VWS V14.01,2013-01-17 03:55:00,
2013-01-16 23:00:00,31.5,28.1,29.85,SW,232,4.0,4.0,87,0.00,,OVC003,0.00,VWS V14.01,2013-01-17 04:00:00,
2013-01-16 23:05:00,31.4,28.0,29.85,SW,232,2.0,2.0,87,0.00,,OVC003,0.00,VWS V14.01,2013-01-17 04:05:00,
2013-01-16 23:10:00,31.5,28.1,29.85,SW,233,2.0,3.0,87,0.00,,OVC003,0.00,VWS V14.01,2013-01-17 04:10:00,
2013-01-16 23:15:00,31.5,28.1,29.85,West,272,5.0,5.0,87,0.00,,OVC003,0.00,VWS V14.01,2013-01-17 04:15:00,
2013-01-16 23:20:00,31.5,28.1,29.85,West,272,3.0,3.0,87,0.00,,OVC003,0.00,VWS V14.01,2013-01-17 04:20:00,
2013-01-16 23:25:00,31.5,28.1,29.85,West,281,2.0,2.0,87,0.00,,OVC003,0.00,VWS V14.01,2013-01-17 04:25:00,
2013-01-16 23:30:00,31.6,28.2,29.85,WNW,282,3.0,4.0,87,0.00,,OVC003,0.00,VWS V14.01,2013-01-17 04:30:00,
2013-01-16 23:35:00,31.6,28.2,29.87,SSE,153,2.0,5.0,87,0.00,,OVC003,0.00,VWS V14.01,2013-01-17 04:35:00,
2013-01-16 23:40:00,31.6,28.2,29.87,West,276,2.0,2.0,87,0.00,,OVC003,0.00,VWS V14.01,2013-01-17 04:40:00,
2013-01-16 23:45:00,31.5,28.1,29.87,South,188,2.0,2.0,87,0.00,,OVC003,0.00,VWS V14.01,2013-01-17 04:45:00,
2013-01-16 23:50:00,31.3,27.9,29.87,South,189,2.0,2.0,87,0.00,,OVC003,0.00,VWS V14.01,2013-01-17 04:50:00,
2013-01-16 23:55:00,31.2,27.5,29.87,West,270,2.0,0.0,86,0.00,,OVC003,0.00,VWS V14.01,2013-01-17 04:55:00,